Metar Cercanos

 

LEPA - Palma De Mallorc, Spain
Distance from station: ONO 38km
Actualización: Tue, 20-Apr-2021 10:30am CEST
Few Clouds
Few Clouds
 Viento del OSO
Viento: OSO 4 km/h
Temperatura: 17°C
Rocío: 11°C
Humedad: 68%
Barómetro: 1015 hPa
Clouds: Few Clouds
Visibility: 10 km
Cloud details: Few Clouds 1524 m
2021/04/20 08:30 LEPA 200830Z 24002KT 9999 FEW050 17/11 Q1015 NOSIG
LEMH - Mahon/Menorca Is, Spain
Distance from station: ENE 105km
Actualización: Tue, 20-Apr-2021 10:30am CEST
Few Clouds
Few Clouds
 Viento del S
Viento: S 13 km/h
Temperatura: 15°C
Rocío: 9°C
Humedad: 68%
Barómetro: 1016 hPa
Clouds: Few Clouds
Visibility: 10 km
Cloud details: Few Clouds 610 m
2021/04/20 08:30 LEMH 200830Z 17007KT 110V200 9999 FEW020 15/09 Q1016
 
LEIB - Ibiza/Es Codola, Spain
Distance from station: OSO 165km
Actualización: Tue, 20-Apr-2021 10:30am CEST
Few Clouds
Few Clouds
 Viento del OSO
Viento: OSO 11 km/h
Temperatura: 16°C
Rocío: 14°C
Humedad: 88%
Barómetro: 1014 hPa
Clouds: Few Clouds
Visibility: 10 km
Cloud details: Few Clouds 914 m
2021/04/20 08:30 LEIB 200830Z 25006KT 210V270 9999 FEW030 16/14 Q1014 NOSIG
LEBL - Barcelona Airpor, Spain
Distance from station: NNO 225km
Actualización: Tue, 20-Apr-2021 10:30am CEST
Few Clouds
Few Clouds
 Viento del NNO
Viento: NNO 7 km/h
Temperatura: 15°C
Rocío: 9°C
Humedad: 68%
Barómetro: 1015 hPa
Clouds: Few Clouds
Visibility: 10 km
Cloud details: Few Clouds 549 m
2021/04/20 08:30 LEBL 200830Z 33004KT 300V360 9999 FEW018 15/09 Q1015 NOSIG
 
LEVC - Valencia (civ/Mi, Spain
Distance from station: NO 188km
Actualización: Tue, 20-Apr-2021 10:30am CEST
Despejado
Despejado
 Viento del SE
Viento: SE 6 km/h
Temperatura: 14°C
Rocío: 8°C
Humedad: 67%
Barómetro: 1014 hPa
Resumen: Despejado
Visibility: greater than 10 km
2021/04/20 08:30 LEVC 200830Z 13003KT 100V170 CAVOK 14/08 Q1014 NOSIG
LEGE - Gerona/Costa Bra, Spain
Distance from station: N 276km
Actualización: Tue, 20-Apr-2021 10:30am CEST
Despejado
Despejado
 Viento del varies
Viento: varies 4 km/h
Temperatura: 13°C
Rocío: 6°C
Humedad: 63%
Barómetro: 1015 hPa
Resumen: Despejado
Visibility: greater than 10 km
2021/04/20 08:30 LEGE 200830Z VRB02KT CAVOK 13/06 Q1015
 
LEAL - Alicante/El Alte, Spain
Distance from station: OSO 344km
Actualización: Tue, 20-Apr-2021 10:30am CEST
Few Clouds
Few Clouds
 Viento del ENE
Viento: ENE 15 km/h
Temperatura: 16°C
Rocío: 13°C
Humedad: 83%
Barómetro: 1014 hPa
Clouds: Few Clouds
Visibility: 10 km
Cloud details: Few Clouds 457 m
2021/04/20 08:30 LEAL 200830Z 07008KT 9999 FEW015 16/13 Q1014 NOSIG
LEAM - Almeria Airport, Spain
Distance from station: SSO 56km
Actualización: Tue, 20-Apr-2021 10:30am CEST
Few Clouds
Few Clouds
 Viento del SO
Viento: SO 7 km/h
Temperatura: 17°C
Rocío: 14°C
Humedad: 83%
Barómetro: 1014 hPa
Clouds: Few Clouds
Visibility: 10 km
Cloud details: Few Clouds 305 m
2021/04/20 08:30 LEAM 200830Z 22004KT 180V270 9999 FEW010 17/14 Q1014
 
LEZG - Zaragoza (mil/Ci, Spain
Distance from station: NO 431km
Actualización: Tue, 20-Apr-2021 10:30am CEST
Muy nuboso
Muy nuboso
 Viento del calm
Viento: Calma
Temperatura: 13°C
Rocío: 8°C
Humedad: 72%
Barómetro: 1015 hPa
Clouds: Muy nuboso
Visibility: 10 km
Cloud details: Muy nuboso 2134 m
2021/04/20 08:30 LEZG 200830Z 00000KT 9999 BKN070 13/08 Q1015
LEMD - Madrid/Barajas, Spain
Distance from station: ONO 234km
Actualización: Tue, 20-Apr-2021 10:30am CEST
Muy nuboso
Muy nuboso
 Viento del calm
Viento: Calma
Temperatura: 13°C
Rocío: 9°C
Humedad: 77%
Barómetro: 1014 hPa
Clouds: Muy nuboso
Visibility: 10 km
Cloud details: Few Clouds 1524 m
Muy nuboso 2316 m
2021/04/20 08:30 LEMD 200830Z 00000KT 9999 FEW050 BKN076 13/09 Q1014 NOSIG
 
LEGR - Granada Airport, Spain
Distance from station: OSO 62km
Actualización: Tue, 20-Apr-2021 10:30am CEST
Despejado
Despejado
 Viento del varies
Viento: varies 2 km/h
Temperatura: 14°C
Rocío: 10°C
Humedad: 77%
Barómetro: 1016 hPa
Resumen: Despejado
Visibility: greater than 10 km
2021/04/20 08:30 LEGR 200830Z VRB01KT CAVOK 14/10 Q1016
LEMG - Malaga (civ/Mil), Spain
Distance from station: OSO 227km
Actualización: Tue, 20-Apr-2021 10:30am CEST
Despejado
Despejado
 Viento del O
Viento: O 13 km/h
Temperatura: 20°C
Rocío: 10°C
Humedad: 53%
Barómetro: 1014 hPa
Resumen: Despejado
Visibility: greater than 10 km
2021/04/20 08:30 LEMG 200830Z 27007KT CAVOK 20/10 Q1014 NOSIG
 
LEZL - Sevilla (civ/Mil, Spain
Distance from station: S 318km
Actualización: Tue, 20-Apr-2021 10:30am CEST
Despejado
Despejado
 Viento del NO
Viento: NO 9 km/h
Temperatura: 16°C
Rocío: 9°C
Humedad: 63%
Barómetro: 1016 hPa
Resumen: Despejado
Visibility: greater than 10 km
2021/04/20 08:30 LEZL 200830Z 31005KT 270V010 CAVOK 16/09 Q1016 NOSIG
LEVT - Vitoria, Spain
Distance from station: NO 226km
Actualización: Tue, 20-Apr-2021 10:30am CEST
Light drizzle, Muy nuboso
Light drizzle, Muy nuboso
 Viento del calm
Viento: Calma
Temperatura: 9°C
Rocío: 4°C
Humedad: 71%
Barómetro: 1016 hPa
Resumen: Light Drizzle
Clouds: Muy nuboso
Visibility: 10 km
Cloud details: Few Clouds 1067 m
Muy nuboso 1676 m
2021/04/20 08:30 LEVT 200830Z 00000KT 9999 -DZ FEW035 BKN055 09/04 Q1016
 
LEBB - Bilbao/Sondica, Spain
Distance from station: NNO 235km
Actualización: Tue, 20-Apr-2021 10:30am CEST
Despejado
Despejado
 Viento del E
Viento: E 6 km/h
Temperatura: 12°C
Rocío: 6°C
Humedad: 67%
Barómetro: 1016 hPa
Resumen: Despejado
Visibility: greater than 10 km
2021/04/20 08:30 LEBB 200830Z 08003KT 060V120 CAVOK 12/06 Q1016 NOSIG
LESO - San Sebastian/Fu, Spain
Distance from station: N 231km
Actualización: Tue, 20-Apr-2021 10:30am CEST
Despejado
Despejado
 Viento del varies
Viento: varies 4 km/h
Temperatura: 14°C
Rocío: 7°C
Humedad: 63%
Barómetro: 1015 hPa
Resumen: Despejado
Visibility: greater than 10 km
2021/04/20 08:30 LESO 200830Z VRB02KT CAVOK 14/07 Q1015
 
LEVD - Valladolid(Mil/C, Spain
Distance from station: ONO 239km
Actualización: Tue, 20-Apr-2021 10:30am CEST
Cubierto
Cubierto
 Viento del varies
Viento: varies 2 km/h
Temperatura: 9°C
Rocío: 8°C
Humedad: 94%
Barómetro: 1014 hPa
Clouds: Cubierto
Visibility: 9 km
Cloud details: Muy nuboso 91 m
Cubierto 213 m
2021/04/20 08:30 LEVD 200830Z VRB01KT 9000 BKN003 OVC007 09/08 Q1014
LESA - Salamanca (civ/M, Spain
Distance from station: ONO 349km
Actualización: Tue, 20-Apr-2021 10:30am CEST
Few Clouds
Few Clouds
 Viento del O
Viento: O 7 km/h
Temperatura: 10°C
Sensación frio: 9°C
Rocío: 5°C
Humedad: 71%
Barómetro: 1015 hPa
Clouds: Few Clouds
Visibility: 10 km
Cloud details: Few Clouds 1463 m
2021/04/20 08:30 LESA 200830Z 26004KT 230V300 9999 FEW048 10/05 Q1015
 
LEXJ - Santander/Paraya, Spain
Distance from station: NNO 247km
Actualización: Tue, 20-Apr-2021 10:30am CEST
Muy nuboso
Muy nuboso
 Viento del OSO
Viento: OSO 7 km/h
Temperatura: 15°C
Rocío: 12°C
Humedad: 82%
Barómetro: 1016 hPa
Clouds: Muy nuboso
Visibility: 10 km
Cloud details: Muy nuboso 2286 m
2021/04/20 08:30 LEXJ 200830Z 25004KT 210V290 9999 BKN075 15/12 Q1016
LEAS - Asturias/Aviles, Spain
Distance from station: NO 214km
Actualización: Tue, 20-Apr-2021 10:30am CEST
Muy nuboso
Muy nuboso
 Viento del SSO
Viento: SSO 6 km/h
Temperatura: 12°C
Rocío: 8°C
Humedad: 77%
Barómetro: 1015 hPa
Clouds: Muy nuboso
Visibility: 10 km
Cloud details: Muy nuboso 2256 m
2021/04/20 08:30 LEAS 200830Z 20003KT 170V240 9999 BKN074 12/08 Q1015 NOSIG
 
LECO - La Coruna/Alvedr, Spain
Distance from station: ONO 222km
Actualización: Tue, 20-Apr-2021 10:30am CEST
Light drizzle, Muy nuboso
Light drizzle, Muy nuboso
 Viento del SSE
Viento: SSE 7 km/h
Temperatura: 12°C
Rocío: 12°C
Humedad: 100%
Barómetro: 1015 hPa
Resumen: Light Drizzle
Clouds: Muy nuboso
Visibility: 8 km
Cloud details: Few Clouds 61 m
Muy nuboso 732 m
2021/04/20 08:30 LECO 200830Z 15004KT 8000 -DZ FEW002 BKN024 12/12 Q1015 TEMPO 3000 RA BKN010
LEVX - Vigo/Peinador, Spain
Distance from station: O 214km
Actualización: Tue, 20-Apr-2021 10:30am CEST
Patches of fog, Lluvia débil, Drizzle, Muy nuboso
Patches of fog, Lluvia débil, Drizzle, Muy nuboso
 Viento del SSO
Viento: SSO 11 km/h
Temperatura: 10°C
Sensación frio: 8°C
Rocío: 10°C
Humedad: 100%
Barómetro: 1016 hPa
Resumen: Patches of fog, Lluvia débil, Drizzle
Clouds: Muy nuboso
Visibility: 4 km
Cloud details: Parcialmente nuboso 366 m
Muy nuboso 579 m
Muy nuboso 792 m
2021/04/20 08:30 LEVX 200830Z 21006KT 170V230 4000 1000SE BCFG -RADZ SCT012 BKN019 BKN026 10/10 Q1016 TEMPO BKN010